createdAt,value
2023-02-01T00:04:05.530Z,998.84
2023-02-01T00:09:05.459Z,998.85
2023-02-01T00:14:05.381Z,998.87
2023-02-01T00:19:05.304Z,998.90
2023-02-01T00:24:05.248Z,998.73
2023-02-01T00:29:05.185Z,998.78
2023-02-01T00:34:05.125Z,998.70
2023-02-01T00:39:05.105Z,998.80
2023-02-01T00:44:05.041Z,998.77
2023-02-01T00:49:05.099Z,998.78
2023-02-01T00:54:05.115Z,998.81
2023-02-01T00:59:05.110Z,998.82
2023-02-01T01:04:05.134Z,998.80
2023-02-01T01:09:05.131Z,998.72
2023-02-01T01:14:05.157Z,998.78
2023-02-01T01:19:04.540Z,998.77
2023-02-01T01:24:04.478Z,998.70
2023-02-01T01:29:04.422Z,998.60
2023-02-01T01:34:04.355Z,998.50
2023-02-01T01:39:04.283Z,998.49
2023-02-01T01:44:04.246Z,998.44
2023-02-01T01:49:04.173Z,998.50
2023-02-01T01:54:04.093Z,998.42
2023-02-01T01:59:04.032Z,998.33
2023-02-01T02:04:03.967Z,998.36
2023-02-01T02:09:06.620Z,998.29
2023-02-01T02:14:03.890Z,998.20
2023-02-01T02:19:03.778Z,998.22
2023-02-01T02:24:03.707Z,998.01
2023-02-01T02:29:03.646Z,998.09
2023-02-01T02:34:03.592Z,998.28
2023-02-01T02:39:03.504Z,998.21
2023-02-01T02:44:03.459Z,998.15
2023-02-01T02:49:03.380Z,998.00
2023-02-01T02:54:03.327Z,998.16
2023-02-01T02:59:03.248Z,998.06
2023-02-01T03:04:03.199Z,998.11
2023-02-01T03:09:03.119Z,998.15
2023-02-01T03:14:03.067Z,998.18
2023-02-01T03:19:02.998Z,998.14
2023-02-01T03:24:02.932Z,998.12
2023-02-01T03:29:02.867Z,998.09
2023-02-01T03:34:02.822Z,997.95
2023-02-01T03:39:02.731Z,997.89
2023-02-01T03:44:02.692Z,997.75
2023-02-01T03:49:02.602Z,997.68
2023-02-01T03:54:02.559Z,997.55
2023-02-01T03:59:02.476Z,997.55
2023-02-01T04:04:02.435Z,997.48
2023-02-01T04:09:02.343Z,997.41
2023-02-01T04:14:02.297Z,997.34
2023-02-01T04:19:02.248Z,997.41
2023-02-01T04:24:02.187Z,997.37
2023-02-01T04:29:02.090Z,997.35
2023-02-01T04:34:02.036Z,997.24
2023-02-01T04:39:01.958Z,997.19
2023-02-01T04:44:01.918Z,997.12
2023-02-01T04:49:01.830Z,997.05
2023-02-01T04:54:01.772Z,996.94
2023-02-01T04:59:01.705Z,996.71
2023-02-01T05:04:01.647Z,996.59
2023-02-01T05:09:01.567Z,996.61
2023-02-01T05:14:02.632Z,996.58
2023-02-01T05:19:01.462Z,996.64
2023-02-01T05:24:01.393Z,996.58
2023-02-01T05:29:01.313Z,996.64
2023-02-01T05:34:01.256Z,996.56
2023-02-01T05:39:01.188Z,996.53
2023-02-01T05:44:01.127Z,996.53
2023-02-01T05:49:01.066Z,996.57
2023-02-01T05:54:01.000Z,996.46
2023-02-01T05:59:32.116Z,996.41
2023-02-01T06:04:00.936Z,996.39
2023-02-01T06:09:00.801Z,996.42
2023-02-01T06:14:00.728Z,996.42
2023-02-01T06:19:00.672Z,996.36
2023-02-01T06:24:00.600Z,996.28
2023-02-01T06:29:00.544Z,996.31
2023-02-01T06:34:00.475Z,996.31
2023-02-01T06:39:00.414Z,996.29
2023-02-01T06:44:00.346Z,996.31
2023-02-01T06:49:00.287Z,996.23
2023-02-01T06:54:00.223Z,996.32
2023-02-01T06:59:00.155Z,996.20
2023-02-01T07:04:00.135Z,996.24
2023-02-01T07:09:00.039Z,996.15
2023-02-01T07:13:59.952Z,996.17
2023-02-01T07:18:59.897Z,995.96
2023-02-01T07:23:59.826Z,996.10
2023-02-01T07:28:59.777Z,996.09
2023-02-01T07:33:59.726Z,996.14
2023-02-01T07:38:59.634Z,996.02
2023-02-01T07:43:59.563Z,996.06
2023-02-01T07:48:59.507Z,996.17
2023-02-01T07:53:59.432Z,996.14
2023-02-01T07:58:59.371Z,996.15
2023-02-01T08:03:59.297Z,996.15
2023-02-01T08:08:59.247Z,996.20
2023-02-01T08:13:59.169Z,996.25
2023-02-01T08:18:59.132Z,996.30
2023-02-01T08:23:59.041Z,996.26
2023-02-01T08:28:59.002Z,996.26
2023-02-01T08:33:58.922Z,996.44
2023-02-01T08:38:58.892Z,996.39
2023-02-01T08:43:58.779Z,996.24
2023-02-01T08:48:58.717Z,996.23
2023-02-01T08:53:58.643Z,996.22
2023-02-01T08:58:58.592Z,996.23
2023-02-01T09:03:58.558Z,996.27
2023-02-01T09:08:58.451Z,996.34
2023-02-01T09:13:58.375Z,996.36
2023-02-01T09:19:22.111Z,996.33
2023-02-01T09:23:59.291Z,996.54
2023-02-01T09:28:58.188Z,996.45
2023-02-01T09:33:58.116Z,996.65
2023-02-01T09:38:58.061Z,996.61
2023-02-01T09:43:57.986Z,996.65
2023-02-01T09:48:57.927Z,996.64
2023-02-01T09:53:57.855Z,996.59
2023-02-01T09:58:57.798Z,996.64
2023-02-01T10:03:57.742Z,996.67
2023-02-01T10:08:57.666Z,996.56
2023-02-01T10:13:57.597Z,996.50
2023-02-01T10:18:57.535Z,996.55
2023-02-01T10:24:00.971Z,996.60
2023-02-01T10:28:57.403Z,996.58
2023-02-01T10:33:57.335Z,996.59
2023-02-01T10:38:57.287Z,996.50
2023-02-01T10:43:57.196Z,996.54
2023-02-01T10:48:57.142Z,996.43
2023-02-01T10:53:57.073Z,996.31
2023-02-01T10:58:57.009Z,996.46
2023-02-01T11:03:56.936Z,996.45
2023-02-01T11:08:56.900Z,996.50
2023-02-01T11:13:56.814Z,996.41
2023-02-01T11:18:56.761Z,996.24
2023-02-01T11:23:56.674Z,996.31
2023-02-01T11:28:56.621Z,996.27
2023-02-01T11:33:56.539Z,996.32
2023-02-01T11:38:56.481Z,996.34
2023-02-01T11:43:56.412Z,996.33
2023-02-01T11:48:56.372Z,996.27
2023-02-01T11:53:56.276Z,996.21
2023-02-01T11:58:56.217Z,996.10
2023-02-01T12:03:56.147Z,996.16
2023-02-01T12:08:56.096Z,996.03
2023-02-01T12:13:56.011Z,996.11
2023-02-01T12:18:55.958Z,995.99
2023-02-01T12:23:55.883Z,996.00
2023-02-01T12:28:55.836Z,995.91
2023-02-01T12:33:55.953Z,995.93
2023-02-01T12:38:55.704Z,995.95
2023-02-01T12:43:55.620Z,995.89
2023-02-01T12:48:55.563Z,995.93
2023-02-01T12:53:55.491Z,995.81
2023-02-01T12:58:55.436Z,995.84
2023-02-01T13:03:55.360Z,995.64
2023-02-01T13:08:55.329Z,995.68
2023-02-01T13:13:55.267Z,995.59
2023-02-01T13:18:55.168Z,995.51
2023-02-01T13:23:55.100Z,995.61
2023-02-01T13:28:55.042Z,995.57
2023-02-01T13:33:56.451Z,995.43
2023-02-01T13:38:54.909Z,995.20
2023-02-01T13:43:54.845Z,995.09
2023-02-01T13:48:54.785Z,995.00
2023-02-01T13:53:54.721Z,994.97
2023-02-01T13:58:54.655Z,994.89
2023-02-01T14:03:54.578Z,994.92
2023-02-01T14:08:54.519Z,994.76
2023-02-01T14:13:54.446Z,994.80
2023-02-01T14:18:54.390Z,994.74
2023-02-01T14:23:54.315Z,994.60
2023-02-01T14:28:54.276Z,994.17
2023-02-01T14:33:54.183Z,994.21
2023-02-01T14:38:54.126Z,994.24
2023-02-01T14:43:54.064Z,994.28
2023-02-01T14:48:54.000Z,994.26
2023-02-01T14:53:53.923Z,994.41
2023-02-01T14:58:53.878Z,994.52
2023-02-01T15:03:53.790Z,994.23
2023-02-01T15:08:53.729Z,994.22
2023-02-01T15:13:53.864Z,994.13
2023-02-01T15:18:53.599Z,994.23
2023-02-01T15:23:53.524Z,994.06
2023-02-01T15:28:53.472Z,993.92
2023-02-01T15:33:53.392Z,993.95
2023-02-01T15:38:53.333Z,994.09
2023-02-01T15:43:53.988Z,994.16
2023-02-01T15:48:53.197Z,994.08
2023-02-01T15:53:53.138Z,994.13
2023-02-01T15:58:53.057Z,994.55
2023-02-01T16:03:53.002Z,994.76
2023-02-01T16:08:52.927Z,994.89
2023-02-01T16:13:52.866Z,995.56
2023-02-01T16:18:52.795Z,996.26
2023-02-01T16:23:52.741Z,996.40
2023-02-01T16:28:52.667Z,996.41
2023-02-01T16:33:52.611Z,996.19
2023-02-01T16:38:52.526Z,996.06
2023-02-01T16:43:52.467Z,995.94
2023-02-01T16:48:52.400Z,995.70
2023-02-01T16:53:55.006Z,995.64
2023-02-01T16:58:52.269Z,995.44
2023-02-01T17:03:52.234Z,995.55
2023-02-01T17:08:52.153Z,995.65
2023-02-01T17:13:52.085Z,995.69
2023-02-01T17:18:52.011Z,995.82
2023-02-01T17:23:51.950Z,995.80
2023-02-01T17:28:51.879Z,995.86
2023-02-01T17:33:51.827Z,995.94
2023-02-01T17:39:04.828Z,995.93
2023-02-01T17:43:52.712Z,996.07
2023-02-01T17:48:51.615Z,996.02
2023-02-01T17:53:51.561Z,996.17
2023-02-01T17:58:51.563Z,996.18
2023-02-01T18:03:51.428Z,996.23
2023-02-01T18:08:51.395Z,996.32
2023-02-01T18:13:51.302Z,996.28
2023-02-01T18:18:51.232Z,996.41
2023-02-01T18:23:51.186Z,996.23
2023-02-01T18:28:51.113Z,996.36
2023-02-01T18:33:51.048Z,996.32
2023-02-01T18:38:50.984Z,996.38
2023-02-01T18:43:51.013Z,996.43
2023-02-01T18:48:50.850Z,996.51
2023-02-01T18:53:50.795Z,996.39
2023-02-01T18:58:50.726Z,996.42
2023-02-01T19:03:55.993Z,996.53
2023-02-01T19:08:51.621Z,996.60
2023-02-01T19:13:50.567Z,996.54
2023-02-01T19:18:50.471Z,996.54
2023-02-01T19:23:50.412Z,996.51
2023-02-01T19:28:50.341Z,996.43
2023-02-01T19:33:50.487Z,996.41
2023-02-01T19:38:50.219Z,996.43
2023-02-01T19:43:50.161Z,996.48
2023-02-01T19:48:50.090Z,996.51
2023-02-01T19:53:50.042Z,996.50
2023-02-01T19:58:49.961Z,996.53
2023-02-01T20:03:49.039Z,996.55
2023-02-01T20:08:48.982Z,996.59
2023-02-01T20:13:48.922Z,996.54
2023-02-01T20:18:48.856Z,996.55
2023-02-01T20:23:48.806Z,996.55
2023-02-01T20:28:49.595Z,996.58
2023-02-01T20:33:49.541Z,996.56
2023-02-01T20:38:49.476Z,996.60
2023-02-01T20:43:49.423Z,996.64
2023-02-01T20:48:49.355Z,996.75
2023-02-01T20:53:49.300Z,996.79
2023-02-01T20:58:49.232Z,996.69
2023-02-01T21:03:49.179Z,996.73
2023-02-01T21:08:49.113Z,996.70
2023-02-01T21:13:49.057Z,996.68
2023-02-01T21:18:48.988Z,996.76
2023-02-01T21:23:48.945Z,996.77
2023-02-01T21:28:48.862Z,996.83
2023-02-01T21:33:48.812Z,996.73
2023-02-01T21:38:48.738Z,996.73
2023-02-01T21:43:48.681Z,996.94
2023-02-01T21:49:04.120Z,997.11
2023-02-01T21:53:49.589Z,997.11
2023-02-01T21:58:48.482Z,997.00
2023-02-01T22:03:48.452Z,997.00
2023-02-01T22:08:48.365Z,997.01
2023-02-01T22:13:48.305Z,996.97
2023-02-01T22:18:48.224Z,997.03
2023-02-01T22:23:48.165Z,997.03
2023-02-01T22:28:48.099Z,996.99
2023-02-01T22:33:48.038Z,997.02
2023-02-01T22:38:47.970Z,996.94
2023-02-01T22:43:47.917Z,996.97
2023-02-01T22:48:47.836Z,996.95
2023-02-01T22:53:47.769Z,996.96
2023-02-01T22:58:47.696Z,996.99
2023-02-01T23:03:47.636Z,997.14
2023-02-01T23:08:47.562Z,997.11
2023-02-01T23:13:47.502Z,997.21
2023-02-01T23:18:47.430Z,997.16
2023-02-01T23:23:47.385Z,997.20
2023-02-01T23:28:47.318Z,997.20
2023-02-01T23:33:47.245Z,997.20
2023-02-01T23:38:47.182Z,997.28
2023-02-01T23:43:47.123Z,997.32
2023-02-01T23:48:47.051Z,997.22
2023-02-01T23:53:46.993Z,997.30
2023-02-01T23:58:46.922Z,997.26
